sensor_id;sensor_type;location;lat;lon;timestamp;pressure;altitude;pressure_sealevel;temperature;humidity
5996;BME280;3026;53.612;7.278;2023-07-31T00:01:30;100594.25;;;17.18;100.00
5996;BME280;3026;53.612;7.278;2023-07-31T00:03:59;100597.00;;;17.18;100.00
5996;BME280;3026;53.612;7.278;2023-07-31T00:06:28;100591.50;;;17.18;100.00
5996;BME280;3026;53.612;7.278;2023-07-31T00:08:55;100578.94;;;17.22;100.00
5996;BME280;3026;53.612;7.278;2023-07-31T00:11:22;100588.28;;;17.21;100.00
5996;BME280;3026;53.612;7.278;2023-07-31T00:13:49;100586.16;;;17.23;100.00
5996;BME280;3026;53.612;7.278;2023-07-31T00:16:16;100579.78;;;17.23;100.00
5996;BME280;3026;53.612;7.278;2023-07-31T00:18:43;100584.47;;;17.22;100.00
5996;BME280;3026;53.612;7.278;2023-07-31T00:21:12;100577.72;;;17.18;100.00
5996;BME280;3026;53.612;7.278;2023-07-31T00:23:41;100578.94;;;17.22;100.00
5996;BME280;3026;53.612;7.278;2023-07-31T00:26:08;100586.16;;;17.23;100.00
5996;BME280;3026;53.612;7.278;2023-07-31T00:28:39;100582.31;;;17.24;100.00
5996;BME280;3026;53.612;7.278;2023-07-31T00:31:06;100576.81;;;17.24;100.00
5996;BME280;3026;53.612;7.278;2023-07-31T00:33:34;100578.53;;;17.25;100.00
5996;BME280;3026;53.612;7.278;2023-07-31T00:36:01;100570.06;;;17.20;100.00
5996;BME280;3026;53.612;7.278;2023-07-31T00:38:32;100568.38;;;17.19;100.00
5996;BME280;3026;53.612;7.278;2023-07-31T00:40:59;100575.13;;;17.23;100.00
5996;BME280;3026;53.612;7.278;2023-07-31T00:43:26;100560.28;;;17.24;100.00
5996;BME280;3026;53.612;7.278;2023-07-31T00:45:53;100565.41;;;17.20;100.00
5996;BME280;3026;53.612;7.278;2023-07-31T00:48:21;100578.94;;;17.22;100.00
5996;BME280;3026;53.612;7.278;2023-07-31T00:50:48;100565.41;;;17.20;100.00
5996;BME280;3026;53.612;7.278;2023-07-31T00:53:17;100555.69;;;17.18;100.00
5996;BME280;3026;53.612;7.278;2023-07-31T00:55:46;100556.75;;;17.17;100.00
5996;BME280;3026;53.612;7.278;2023-07-31T00:58:13;100557.81;;;17.16;100.00
5996;BME280;3026;53.612;7.278;2023-07-31T01:00:42;100542.16;;;17.10;100.00
5996;BME280;3026;53.612;7.278;2023-07-31T01:03:09;100545.13;;;17.15;100.00
5996;BME280;3026;53.612;7.278;2023-07-31T01:05:41;100553.59;;;17.13;100.00
5996;BME280;3026;53.612;7.278;2023-07-31T01:08:15;100545.53;;;17.12;100.00
5996;BME280;3026;53.612;7.278;2023-07-31T01:10:50;100537.28;;;17.12;100.00
5996;BME280;3026;53.612;7.278;2023-07-31T01:13:19;100532.84;;;17.11;100.00
5996;BME280;3026;53.612;7.278;2023-07-31T01:15:47;100531.38;;;17.08;100.00
5996;BME280;3026;53.612;7.278;2023-07-31T01:18:13;100538.34;;;17.11;100.00
5996;BME280;3026;53.612;7.278;2023-07-31T01:20:42;100535.59;;;17.11;100.00
5996;BME280;3026;53.612;7.278;2023-07-31T01:23:35;100529.91;;;17.06;100.00
5996;BME280;3026;53.612;7.278;2023-07-31T01:26:13;100521.44;;;17.07;100.00
5996;BME280;3026;53.612;7.278;2023-07-31T01:28:50;100521.44;;;17.07;100.00
5996;BME280;3026;53.612;7.278;2023-07-31T01:31:23;100534.34;;;17.07;100.00
5996;BME280;3026;53.612;7.278;2023-07-31T01:33:52;100534.97;;;17.09;100.00
5996;BME280;3026;53.612;7.278;2023-07-31T01:36:22;100532.44;;;17.07;100.00
5996;BME280;3026;53.612;7.278;2023-07-31T01:38:49;100538.78;;;17.08;100.00
5996;BME280;3026;53.612;7.278;2023-07-31T01:41:18;100529.91;;;17.06;100.00
5996;BME280;3026;53.612;7.278;2023-07-31T01:43:47;100538.78;;;17.08;100.00
5996;BME280;3026;53.612;7.278;2023-07-31T01:46:15;100532.22;;;17.09;100.00
5996;BME280;3026;53.612;7.278;2023-07-31T01:48:41;100525.25;;;17.06;100.00
5996;BME280;3026;53.612;7.278;2023-07-31T01:51:08;100530.31;;;17.09;100.00
5996;BME280;3026;53.612;7.278;2023-07-31T01:53:36;100527.31;;;17.11;100.00
5996;BME280;3026;53.612;7.278;2023-07-31T01:56:03;100522.88;;;17.10;100.00
5996;BME280;3026;53.612;7.278;2023-07-31T01:58:32;100523.94;;;17.09;100.00
5996;BME280;3026;53.612;7.278;2023-07-31T02:00:59;100514.00;;;17.08;100.00
5996;BME280;3026;53.612;7.278;2023-07-31T02:03:27;100502.38;;;17.06;100.00
5996;BME280;3026;53.612;7.278;2023-07-31T02:05:54;100503.59;;;17.10;100.00
5996;BME280;3026;53.612;7.278;2023-07-31T02:08:22;100493.03;;;17.07;100.00
5996;BME280;3026;53.612;7.278;2023-07-31T02:10:49;100484.59;;;17.02;100.00
5996;BME280;3026;53.612;7.278;2023-07-31T02:13:16;100484.19;;;16.98;100.00
5996;BME280;3026;53.612;7.278;2023-07-31T02:15:45;100478.31;;;16.95;100.00
5996;BME280;3026;53.612;7.278;2023-07-31T02:18:12;100481.66;;;16.97;100.00
5996;BME280;3026;53.612;7.278;2023-07-31T02:20:39;100478.31;;;16.95;100.00
5996;BME280;3026;53.612;7.278;2023-07-31T02:23:06;100480.44;;;16.92;100.00
5996;BME280;3026;53.612;7.278;2023-07-31T02:25:33;100477.06;;;16.90;100.00
5996;BME280;3026;53.612;7.278;2023-07-31T02:27:59;100477.06;;;16.90;100.00
5996;BME280;3026;53.612;7.278;2023-07-31T02:30:27;100469.00;;;16.89;100.00
5996;BME280;3026;53.612;7.278;2023-07-31T02:32:58;100470.91;;;16.88;100.00
5996;BME280;3026;53.612;7.278;2023-07-31T02:35:27;100460.59;;;16.84;100.00
5996;BME280;3026;53.612;7.278;2023-07-31T02:37:53;100454.25;;;16.83;100.00
5996;BME280;3026;53.612;7.278;2023-07-31T02:40:23;100447.50;;;16.79;100.00
5996;BME280;3026;53.612;7.278;2023-07-31T02:42:53;100439.88;;;16.75;100.00
5996;BME280;3026;53.612;7.278;2023-07-31T02:45:22;100433.75;;;16.73;100.00
5996;BME280;3026;53.612;7.278;2023-07-31T02:47:49;100437.34;;;16.73;100.00
5996;BME280;3026;53.612;7.278;2023-07-31T02:50:18;100447.75;;;16.71;100.00
5996;BME280;3026;53.612;7.278;2023-07-31T02:52:45;100441.00;;;16.67;100.00
5996;BME280;3026;53.612;7.278;2023-07-31T02:55:12;100453.50;;;16.70;100.00
5996;BME280;3026;53.612;7.278;2023-07-31T02:57:39;100456.25;;;16.70;100.00
5996;BME280;3026;53.612;7.278;2023-07-31T03:00:09;100460.25;;;16.67;100.00
5996;BME280;3026;53.612;7.278;2023-07-31T03:02:36;100458.53;;;16.66;100.00
5996;BME280;3026;53.612;7.278;2023-07-31T03:05:03;100448.81;;;16.63;100.00
5996;BME280;3026;53.612;7.278;2023-07-31T03:07:32;100453.72;;;16.68;100.00
5996;BME280;3026;53.612;7.278;2023-07-31T03:09:59;100451.13;;;16.67;100.00
5996;BME280;3026;53.612;7.278;2023-07-31T03:12:26;100448.38;;;16.67;100.00
5996;BME280;3026;53.612;7.278;2023-07-31T03:14:53;100445.84;;;16.65;100.00
5996;BME280;3026;53.612;7.278;2023-07-31T03:17:20;100444.16;;;16.64;100.00
5996;BME280;3026;53.612;7.278;2023-07-31T03:19:47;100442.47;;;16.63;100.00
5996;BME280;3026;53.612;7.278;2023-07-31T03:22:17;100448.81;;;16.63;100.00
5996;BME280;3026;53.612;7.278;2023-07-31T03:24:49;100451.81;;;16.62;100.00
5996;BME280;3026;53.612;7.278;2023-07-31T03:27:18;100446.28;;;16.62;100.00
5996;BME280;3026;53.612;7.278;2023-07-31T03:29:45;100433.44;;;16.56;100.00
5996;BME280;3026;53.612;7.278;2023-07-31T03:32:18;100447.38;;;16.61;100.00
5996;BME280;3026;53.612;7.278;2023-07-31T03:34:46;100439.09;;;16.61;100.00
5996;BME280;3026;53.612;7.278;2023-07-31T03:37:13;100441.25;;;16.59;100.00
5996;BME280;3026;53.612;7.278;2023-07-31T03:39:40;100437.44;;;16.60;100.00
5996;BME280;3026;53.612;7.278;2023-07-31T03:42:09;100435.75;;;16.59;100.00
5996;BME280;3026;53.612;7.278;2023-07-31T03:44:36;100435.50;;;16.60;100.00
5996;BME280;3026;53.612;7.278;2023-07-31T03:47:04;100428.56;;;16.58;100.00
5996;BME280;3026;53.612;7.278;2023-07-31T03:49:32;100426.88;;;16.57;100.00
5996;BME280;3026;53.612;7.278;2023-07-31T03:54:40;100427.72;;;16.57;100.00
5996;BME280;3026;53.612;7.278;2023-07-31T03:57:13;100427.28;;;16.54;100.00
5996;BME280;3026;53.612;7.278;2023-07-31T03:59:43;100443.81;;;16.54;100.00
5996;BME280;3026;53.612;7.278;2023-07-31T04:02:10;100438.75;;;16.51;100.00
5996;BME280;3026;53.612;7.278;2023-07-31T04:04:42;100434.94;;;16.52;100.00
5996;BME280;3026;53.612;7.278;2023-07-31T04:07:12;100430.50;;;16.51;100.00
5996;BME280;3026;53.612;7.278;2023-07-31T04:09:39;100426.06;;;16.50;100.00
5996;BME280;3026;53.612;7.278;2023-07-31T04:12:51;100438.75;;;16.51;100.00
5996;BME280;3026;53.612;7.278;2023-07-31T04:15:21;100434.53;;;16.48;100.00
5996;BME280;3026;53.612;7.278;2023-07-31T04:17:49;100433.25;;;16.51;100.00
5996;BME280;3026;53.612;7.278;2023-07-31T04:20:17;100434.53;;;16.48;100.00
5996;BME280;3026;53.612;7.278;2023-07-31T04:22:44;100433.69;;;16.48;100.00
5996;BME280;3026;53.612;7.278;2023-07-31T04:25:11;100434.09;;;16.51;100.00
5996;BME280;3026;53.612;7.278;2023-07-31T04:27:43;100422.22;;;16.51;100.00
5996;BME280;3026;53.612;7.278;2023-07-31T04:30:17;100417.19;;;16.48;100.00
5996;BME280;3026;53.612;7.278;2023-07-31T04:32:44;100413.38;;;16.49;100.00
5996;BME280;3026;53.612;7.278;2023-07-31T04:35:11;100422.22;;;16.51;100.00
5996;BME280;3026;53.612;7.278;2023-07-31T04:37:38;100417.19;;;16.48;100.00
5996;BME280;3026;53.612;7.278;2023-07-31T04:40:08;100411.69;;;16.48;100.00
5996;BME280;3026;53.612;7.278;2023-07-31T04:42:37;100409.53;;;16.50;100.00
5996;BME280;3026;53.612;7.278;2023-07-31T04:45:05;100419.72;;;16.49;100.00
5996;BME280;3026;53.612;7.278;2023-07-31T04:47:34;100419.31;;;16.46;100.00
5996;BME280;3026;53.612;7.278;2023-07-31T04:50:01;100426.50;;;16.47;100.00
5996;BME280;3026;53.612;7.278;2023-07-31T04:52:28;100423.97;;;16.45;100.00
5996;BME280;3026;53.612;7.278;2023-07-31T04:54:55;100428.19;;;16.48;100.00
5996;BME280;3026;53.612;7.278;2023-07-31T04:57:24;100424.81;;;16.46;100.00
5996;BME280;3026;53.612;7.278;2023-07-31T04:59:53;100418.06;;;16.42;100.00
5996;BME280;3026;53.612;7.278;2023-07-31T05:02:24;100416.97;;;16.43;100.00
5996;BME280;3026;53.612;7.278;2023-07-31T05:04:58;100426.91;;;16.44;100.00
5996;BME280;3026;53.612;7.278;2023-07-31T05:07:25;100410.47;;;16.37;100.00
5996;BME280;3026;53.612;7.278;2023-07-31T05:09:55;100409.19;;;16.40;100.00
5996;BME280;3026;53.612;7.278;2023-07-31T05:12:23;100408.53;;;16.44;100.00
5996;BME280;3026;53.612;7.278;2023-07-31T05:14:52;100408.34;;;16.39;100.00
5996;BME280;3026;53.612;7.278;2023-07-31T05:17:19;100413.38;;;16.42;100.00
5996;BME280;3026;53.612;7.278;2023-07-31T05:19:47;100404.06;;;16.43;100.00
5996;BME280;3026;53.612;7.278;2023-07-31T05:22:18;100409.16;;;16.46;100.00
5996;BME280;3026;53.612;7.278;2023-07-31T05:24:47;100401.97;;;16.45;100.00
5996;BME280;3026;53.612;7.278;2023-07-31T05:27:14;100404.50;;;16.47;100.00
5996;BME280;3026;53.612;7.278;2023-07-31T05:29:44;100400.66;;;16.48;100.00
5996;BME280;3026;53.612;7.278;2023-07-31T05:32:12;100404.03;;;16.50;100.00
5996;BME280;3026;53.612;7.278;2023-07-31T05:34:39;100406.56;;;16.51;100.00
5996;BME280;3026;53.612;7.278;2023-07-31T05:37:13;100396.41;;;16.52;100.00
5996;BME280;3026;53.612;7.278;2023-07-31T05:39:45;100399.78;;;16.54;100.00
5996;BME280;3026;53.612;7.278;2023-07-31T05:42:12;100390.91;;;16.52;100.00
5996;BME280;3026;53.612;7.278;2023-07-31T05:44:39;100392.16;;;16.56;100.00
5996;BME280;3026;53.612;7.278;2023-07-31T05:47:06;100397.66;;;16.56;100.00
5996;BME280;3026;53.612;7.278;2023-07-31T05:49:33;100397.66;;;16.56;100.00
5996;BME280;3026;53.612;7.278;2023-07-31T05:52:01;100396.75;;;16.62;100.00
5996;BME280;3026;53.612;7.278;2023-07-31T05:54:28;100393.38;;;16.60;100.00
5996;BME280;3026;53.612;7.278;2023-07-31T05:56:56;100395.69;;;16.63;100.00
5996;BME280;3026;53.612;7.278;2023-07-31T05:59:23;100398.91;;;16.60;100.00
5996;BME280;3026;53.612;7.278;2023-07-31T06:01:53;100401.81;;;16.65;100.00
5996;BME280;3026;53.612;7.278;2023-07-31T06:04:22;100392.47;;;16.66;100.00
5996;BME280;3026;53.612;7.278;2023-07-31T06:06:51;100399.69;;;16.67;100.00
5996;BME280;3026;53.612;7.278;2023-07-31T06:09:18;100392.09;;;16.69;100.00
5996;BME280;3026;53.612;7.278;2023-07-31T06:11:46;100389.34;;;16.62;100.00
5996;BME280;3026;53.612;7.278;2023-07-31T06:14:17;100390.78;;;16.65;100.00
5996;BME280;3026;53.612;7.278;2023-07-31T06:16:44;100386.97;;;16.66;100.00
5996;BME280;3026;53.612;7.278;2023-07-31T06:19:11;100373.44;;;16.64;100.00
5996;BME280;3026;53.612;7.278;2023-07-31T06:21:38;100388.25;;;16.70;100.00
5996;BME280;3026;53.612;7.278;2023-07-31T06:24:12;100386.59;;;16.69;100.00
5996;BME280;3026;53.612;7.278;2023-07-31T06:26:42;100386.13;;;16.72;100.00
5996;BME280;3026;53.612;7.278;2023-07-31T06:29:18;100380.63;;;16.72;100.00
5996;BME280;3026;53.612;7.278;2023-07-31T06:31:51;100374.28;;;16.72;100.00
5996;BME280;3026;53.612;7.278;2023-07-31T06:34:19;100373.81;;;16.75;100.00
5996;BME280;3026;53.612;7.278;2023-07-31T06:36:49;100374.66;;;16.75;100.00
5996;BME280;3026;53.612;7.278;2023-07-31T06:39:22;100376.34;;;16.76;100.00
5996;BME280;3026;53.612;7.278;2023-07-31T06:41:49;100370.41;;;16.79;100.00
5996;BME280;3026;53.612;7.278;2023-07-31T06:44:21;100368.66;;;16.85;100.00
5996;BME280;3026;53.612;7.278;2023-07-31T06:46:48;100372.84;;;16.87;100.00
5996;BME280;3026;53.612;7.278;2023-07-31T06:49:27;100372.84;;;16.87;100.00
5996;BME280;3026;53.612;7.278;2023-07-31T06:51:57;100366.75;;;16.85;100.00
5996;BME280;3026;53.612;7.278;2023-07-31T06:54:24;100366.91;;;16.90;100.00
5996;BME280;3026;53.612;7.278;2023-07-31T06:56:51;100362.69;;;16.88;100.00
5996;BME280;3026;53.612;7.278;2023-07-31T06:59:18;100365.84;;;16.91;100.00
5996;BME280;3026;53.612;7.278;2023-07-31T07:01:47;100359.69;;;16.89;100.00
5996;BME280;3026;53.612;7.278;2023-07-31T07:04:14;100358.03;;;16.88;100.00
5996;BME280;3026;53.612;7.278;2023-07-31T07:06:41;100360.94;;;16.94;100.00
5996;BME280;3026;53.612;7.278;2023-07-31T07:09:08;100343.19;;;16.89;100.00
5996;BME280;3026;53.612;7.278;2023-07-31T07:11:37;100358.03;;;16.88;100.00
5996;BME280;3026;53.612;7.278;2023-07-31T07:14:04;100354.03;;;16.84;100.00
5996;BME280;3026;53.612;7.278;2023-07-31T07:16:31;100347.91;;;16.82;100.00
5996;BME280;3026;53.612;7.278;2023-07-31T07:19:02;100339.47;;;16.77;100.00
5996;BME280;3026;53.612;7.278;2023-07-31T07:21:29;100339.94;;;16.74;100.00
5996;BME280;3026;53.612;7.278;2023-07-31T07:23:58;100343.16;;;16.71;100.00
5996;BME280;3026;53.612;7.278;2023-07-31T07:26:28;100334.28;;;16.69;100.00
5996;BME280;3026;53.612;7.278;2023-07-31T07:28:59;100338.47;;;16.72;100.00
5996;BME280;3026;53.612;7.278;2023-07-31T07:31:27;100343.75;;;16.73;100.00
5996;BME280;3026;53.612;7.278;2023-07-31T07:33:57;100339.94;;;16.74;100.00
5996;BME280;3026;53.612;7.278;2023-07-31T07:36:33;100344.56;;;16.80;100.00
5996;BME280;3026;53.612;7.278;2023-07-31T07:39:02;100336.28;;;16.80;100.00
5996;BME280;3026;53.612;7.278;2023-07-31T07:41:29;100334.63;;;16.79;100.00
5996;BME280;3026;53.612;7.278;2023-07-31T07:43:59;100331.88;;;16.79;100.00
5996;BME280;3026;53.612;7.278;2023-07-31T07:46:26;100330.16;;;16.78;100.00
5996;BME280;3026;53.612;7.278;2023-07-31T07:48:53;100329.53;;;16.76;100.00
5996;BME280;3026;53.612;7.278;2023-07-31T07:51:22;100332.28;;;16.76;100.00
5996;BME280;3026;53.612;7.278;2023-07-31T07:53:51;100328.47;;;16.77;100.00
5996;BME280;3026;53.612;7.278;2023-07-31T07:56:18;100328.47;;;16.77;100.00
5996;BME280;3026;53.612;7.278;2023-07-31T07:58:48;100316.22;;;16.73;100.00
5996;BME280;3026;53.612;7.278;2023-07-31T08:01:16;100316.22;;;16.73;100.00
5996;BME280;3026;53.612;7.278;2023-07-31T08:03:43;100316.63;;;16.77;100.00
5996;BME280;3026;53.612;7.278;2023-07-31T08:06:12;100315.34;;;16.79;100.00
5996;BME280;3026;53.612;7.278;2023-07-31T08:08:39;100313.19;;;16.81;100.00
5996;BME280;3026;53.612;7.278;2023-07-31T08:11:08;100310.22;;;16.83;100.00
5996;BME280;3026;53.612;7.278;2023-07-31T08:13:39;100308.91;;;16.85;100.00
5996;BME280;3026;53.612;7.278;2023-07-31T08:16:08;100302.56;;;16.85;100.00
5996;BME280;3026;53.612;7.278;2023-07-31T08:18:35;100299.19;;;16.83;100.00
5996;BME280;3026;53.612;7.278;2023-07-31T08:21:02;100302.94;;;16.88;100.00
5996;BME280;3026;53.612;7.278;2023-07-31T08:23:29;100298.69;;;16.92;100.00
5996;BME280;3026;53.612;7.278;2023-07-31T08:25:59;100294.88;;;16.94;100.00
5996;BME280;3026;53.612;7.278;2023-07-31T08:28:27;100286.44;;;16.88;100.00
5996;BME280;3026;53.612;7.278;2023-07-31T08:30:55;100276.06;;;16.90;100.00
5996;BME280;3026;53.612;7.278;2023-07-31T08:33:22;100279.56;;;16.98;100.00
5996;BME280;3026;53.612;7.278;2023-07-31T08:35:49;100281.25;;;16.99;100.00
5996;BME280;3026;53.612;7.278;2023-07-31T08:38:16;100281.84;;;17.01;100.00
5996;BME280;3026;53.612;7.278;2023-07-31T08:40:45;100284.59;;;17.01;100.00
5996;BME280;3026;53.612;7.278;2023-07-31T08:43:12;100285.69;;;17.00;100.00
5996;BME280;3026;53.612;7.278;2023-07-31T08:45:42;100264.34;;;16.95;100.00
5996;BME280;3026;53.612;7.278;2023-07-31T08:48:09;100263.50;;;16.95;100.00
5996;BME280;3026;53.612;7.278;2023-07-31T08:50:50;100259.06;;;16.94;100.00
5996;BME280;3026;53.612;7.278;2023-07-31T08:54:24;100266.84;;;16.97;100.00
5996;BME280;3026;53.612;7.278;2023-07-31T08:58:32;100255.38;;;17.00;100.00
5996;BME280;3026;53.612;7.278;2023-07-31T09:11:02;100237.66;;;16.96;100.00
5996;BME280;3026;53.612;7.278;2023-07-31T09:13:33;100230.47;;;16.95;100.00
5996;BME280;3026;53.612;7.278;2023-07-31T09:16:02;100239.31;;;16.97;100.00
5996;BME280;3026;53.612;7.278;2023-07-31T09:18:53;100239.78;;;16.94;100.00
5996;BME280;3026;53.612;7.278;2023-07-31T09:21:24;100235.03;;;17.01;100.00
5996;BME280;3026;53.612;7.278;2023-07-31T09:23:53;100244.38;;;17.00;100.00
5996;BME280;3026;53.612;7.278;2023-07-31T09:26:32;100246.69;;;17.03;100.00
5996;BME280;3026;53.612;7.278;2023-07-31T09:29:00;100245.59;;;17.04;100.00
5996;BME280;3026;53.612;7.278;2023-07-31T09:31:49;100238.84;;;17.00;100.00
5996;BME280;3026;53.612;7.278;2023-07-31T09:34:30;100234.59;;;17.04;100.00
5996;BME280;3026;53.612;7.278;2023-07-31T09:37:03;100224.25;;;16.99;100.00
5996;BME280;3026;53.612;7.278;2023-07-31T09:39:31;100226.94;;;17.06;100.00
5996;BME280;3026;53.612;7.278;2023-07-31T09:42:02;100220.97;;;17.09;100.00
5996;BME280;3026;53.612;7.278;2023-07-31T09:44:39;100214.53;;;17.15;100.00
5996;BME280;3026;53.612;7.278;2023-07-31T09:47:21;100208.56;;;17.18;100.00
5996;BME280;3026;53.612;7.278;2023-07-31T09:49:54;100207.00;;;17.22;100.00
5996;BME280;3026;53.612;7.278;2023-07-31T09:52:25;100214.19;;;17.23;100.00
5996;BME280;3026;53.612;7.278;2023-07-31T09:54:52;100199.81;;;17.21;100.00
5996;BME280;3026;53.612;7.278;2023-07-31T09:57:28;100198.75;;;17.22;100.00
5996;BME280;3026;53.612;7.278;2023-07-31T09:59:58;100189.88;;;17.20;100.00
5996;BME280;3026;53.612;7.278;2023-07-31T10:02:28;100192.41;;;17.21;100.00
5996;BME280;3026;53.612;7.278;2023-07-31T10:05:03;100186.22;;;17.26;100.00
5996;BME280;3026;53.612;7.278;2023-07-31T10:07:31;100182.38;;;17.27;100.00
5996;BME280;3026;53.612;7.278;2023-07-31T10:10:02;100183.00;;;17.29;100.00
5996;BME280;3026;53.612;7.278;2023-07-31T10:12:33;100186.34;;;17.31;100.00
5996;BME280;3026;53.612;7.278;2023-07-31T10:15:01;100185.25;;;17.32;100.00
5996;BME280;3026;53.612;7.278;2023-07-31T10:17:29;100186.34;;;17.31;100.00
5996;BME280;3026;53.612;7.278;2023-07-31T10:20:00;100186.59;;;17.30;100.00
5996;BME280;3026;53.612;7.278;2023-07-31T10:22:33;100177.47;;;17.29;100.00
5996;BME280;3026;53.612;7.278;2023-07-31T10:25:43;100180.97;;;17.36;100.00
5996;BME280;3026;53.612;7.278;2023-07-31T10:28:28;100170.56;;;17.38;100.00
5996;BME280;3026;53.612;7.278;2023-07-31T10:30:56;100166.25;;;17.42;100.00
5996;BME280;3026;53.612;7.278;2023-07-31T10:33:24;100161.97;;;17.46;100.00
5996;BME280;3026;53.612;7.278;2023-07-31T10:36:12;100170.47;;;17.45;100.00
5996;BME280;3026;53.612;7.278;2023-07-31T10:38:39;100158.13;;;17.47;100.00
5996;BME280;3026;53.612;7.278;2023-07-31T10:41:13;100167.63;;;17.52;100.00
5996;BME280;3026;53.612;7.278;2023-07-31T10:43:41;100164.38;;;17.55;100.00
5996;BME280;3026;53.612;7.278;2023-07-31T10:46:12;100158.88;;;17.55;100.00
5996;BME280;3026;53.612;7.278;2023-07-31T10:48:41;100147.38;;;17.58;100.00
5996;BME280;3026;53.612;7.278;2023-07-31T10:51:09;100151.22;;;17.57;100.00
5996;BME280;3026;53.612;7.278;2023-07-31T10:53:40;100148.69;;;17.55;100.00
5996;BME280;3026;53.612;7.278;2023-07-31T10:56:09;100157.19;;;17.54;100.00
5996;BME280;3026;53.612;7.278;2023-07-31T10:58:43;100166.06;;;17.56;100.00
5996;BME280;3026;53.612;7.278;2023-07-31T11:01:57;100154.31;;;17.48;100.00
5996;BME280;3026;53.612;7.278;2023-07-31T11:04:57;100159.84;;;17.48;100.00
5996;BME280;3026;53.612;7.278;2023-07-31T11:08:33;100176.81;;;17.45;100.00
5996;BME280;3026;53.612;7.278;2023-07-31T11:11:10;100168.78;;;17.44;100.00
5996;BME280;3026;53.612;7.278;2023-07-31T11:13:44;100178.50;;;17.46;100.00
5996;BME280;3026;53.612;7.278;2023-07-31T11:16:15;100174.53;;;17.42;100.00
5996;BME280;3026;53.612;7.278;2023-07-31T11:18:45;100172.97;;;17.46;100.00
5996;BME280;3026;53.612;7.278;2023-07-31T11:21:17;100186.91;;;17.52;100.00
5996;BME280;3026;53.612;7.278;2023-07-31T11:23:50;100168.69;;;17.50;100.00
5996;BME280;3026;53.612;7.278;2023-07-31T11:26:19;100171.81;;;17.54;100.00
5996;BME280;3026;53.612;7.278;2023-07-31T11:28:51;100174.50;;;17.61;100.00
5996;BME280;3026;53.612;7.278;2023-07-31T11:31:19;100167.31;;;17.60;100.00
5996;BME280;3026;53.612;7.278;2023-07-31T11:33:46;100175.69;;;17.65;100.00
5996;BME280;3026;53.612;7.278;2023-07-31T11:36:15;100178.44;;;17.65;100.00
5996;BME280;3026;53.612;7.278;2023-07-31T11:38:46;100175.69;;;17.65;100.00
5996;BME280;3026;53.612;7.278;2023-07-31T11:41:19;100164.19;;;17.68;100.00
5996;BME280;3026;53.612;7.278;2023-07-31T11:43:51;100158.84;;;17.73;100.00
5996;BME280;3026;53.612;7.278;2023-07-31T11:46:31;100150.97;;;17.88;100.00
5996;BME280;3026;53.612;7.278;2023-07-31T11:49:03;100152.56;;;18.07;100.00
5996;BME280;3026;53.612;7.278;2023-07-31T11:51:31;100164.06;;;18.28;100.00
5996;BME280;3026;53.612;7.278;2023-07-31T11:54:04;100163.47;;;18.37;100.00
5996;BME280;3026;53.612;7.278;2023-07-31T11:56:32;100161.19;;;18.46;100.00
5996;BME280;3026;53.612;7.278;2023-07-31T11:59:01;100151.22;;;18.57;100.00
5996;BME280;3026;53.612;7.278;2023-07-31T12:01:31;100156.19;;;18.67;100.00
5996;BME280;3026;53.612;7.278;2023-07-31T12:04:01;100146.31;;;18.71;100.00
5996;BME280;3026;53.612;7.278;2023-07-31T12:06:33;100146.97;;;19.01;100.00
5996;BME280;3026;53.612;7.278;2023-07-31T12:09:03;100144.50;;;19.16;100.00
5996;BME280;3026;53.612;7.278;2023-07-31T12:11:42;100137.34;;;19.32;100.00
5996;BME280;3026;53.612;7.278;2023-07-31T12:14:22;100135.16;;;19.46;100.00
5996;BME280;3026;53.612;7.278;2023-07-31T12:17:04;100134.34;;;19.62;100.00
5996;BME280;3026;53.612;7.278;2023-07-31T12:19:32;100135.78;;;19.65;100.00
5996;BME280;3026;53.612;7.278;2023-07-31T12:22:13;100132.75;;;19.66;100.00
5996;BME280;3026;53.612;7.278;2023-07-31T12:24:43;100130.28;;;19.81;100.00
5996;BME280;3026;53.612;7.278;2023-07-31T12:27:15;100122.06;;;19.87;100.00
5996;BME280;3026;53.612;7.278;2023-07-31T12:29:51;100121.06;;;19.93;100.00
5996;BME280;3026;53.612;7.278;2023-07-31T12:32:26;100120.56;;;19.96;100.00
5996;BME280;3026;53.612;7.278;2023-07-31T12:34:59;100131.94;;;19.99;100.00
5996;BME280;3026;53.612;7.278;2023-07-31T12:37:33;100121.22;;;20.03;100.00
5996;BME280;3026;53.612;7.278;2023-07-31T12:40:04;100121.03;;;20.09;100.00
5996;BME280;3026;53.612;7.278;2023-07-31T12:42:34;100125.22;;;20.12;100.00
5996;BME280;3026;53.612;7.278;2023-07-31T12:45:07;100128.50;;;20.09;100.00
5996;BME280;3026;53.612;7.278;2023-07-31T12:47:44;100127.72;;;20.14;100.00
5996;BME280;3026;53.612;7.278;2023-07-31T12:50:13;100121.38;;;20.13;100.00
5996;BME280;3026;53.612;7.278;2023-07-31T12:52:43;100114.81;;;20.19;100.00
5996;BME280;3026;53.612;7.278;2023-07-31T12:55:13;100131.59;;;20.29;100.00
5996;BME280;3026;53.612;7.278;2023-07-31T13:00:39;100125.53;;;20.32;100.00
5996;BME280;3026;53.612;7.278;2023-07-31T13:03:09;100123.88;;;20.31;100.00
5996;BME280;3026;53.612;7.278;2023-07-31T13:05:46;100122.88;;;20.37;100.00
5996;BME280;3026;53.612;7.278;2023-07-31T13:08:16;100111.97;;;20.31;100.00
5996;BME280;3026;53.612;7.278;2023-07-31T13:10:46;100115.00;;;20.29;100.00
5996;BME280;3026;53.612;7.278;2023-07-31T13:13:19;100115.50;;;20.26;100.00
5996;BME280;3026;53.612;7.278;2023-07-31T13:15:51;100116.66;;;20.30;100.00
5996;BME280;3026;53.612;7.278;2023-07-31T13:18:23;100121.69;;;20.33;100.00
5996;BME280;3026;53.612;7.278;2023-07-31T13:20:52;100109.72;;;20.28;100.00
5996;BME280;3026;53.612;7.278;2023-07-31T13:23:22;100113.13;;;20.35;100.00
5996;BME280;3026;53.612;7.278;2023-07-31T13:25:49;100107.25;;;20.31;100.00
5996;BME280;3026;53.612;7.278;2023-07-31T13:28:24;100100.09;;;20.35;100.00
5996;BME280;3026;53.612;7.278;2023-07-31T13:30:52;100107.25;;;20.31;100.00
5996;BME280;3026;53.612;7.278;2023-07-31T13:33:21;100096.44;;;20.30;100.00
5996;BME280;3026;53.612;7.278;2023-07-31T13:35:48;100107.59;;;20.35;100.00